Time;durP1;ratioP1;P1;durP2;ratioP2;P2;SDS_P1;SDS_P2;PMS_P1;PMS_P2;Temp;Humidity;BMP_temperature;BMP_pressure;BME280_temperature;BME280_humidity;BME280_pressure;Samples;Min_cycle;Max_cycle;Signal;HPM_P1;HPM_P2
2022/05/30 00:02:10;;;;;;;2.85;1.30;;;;;;;12.53;46.46;95214.13;10354460;28;97665;-69
2022/05/30 00:07:14;;;;;;;2.75;1.45;;;;;;;12.54;46.37;95205.28;10362103;28;98572;-69
2022/05/30 00:12:17;;;;;;;3.03;1.43;;;;;;;12.55;46.09;95209.56;10356093;28;99775;-69
2022/05/30 00:17:20;;;;;;;2.35;1.30;;;;;;;12.53;46.33;95207.13;10363591;28;96922;-69
2022/05/30 00:22:24;;;;;;;2.20;1.38;;;;;;;12.54;46.59;95203.47;10356692;28;98519;-69
2022/05/30 00:27:27;;;;;;;2.63;1.60;;;;;;;12.46;46.21;95201.81;10356322;28;101582;-69
2022/05/30 00:32:30;;;;;;;3.45;1.38;;;;;;;12.42;46.64;95208.41;10358568;28;98233;-69
2022/05/30 00:37:34;;;;;;;4.35;1.77;;;;;;;12.40;46.37;95197.28;10361763;28;97135;-68
2022/05/30 00:42:37;;;;;;;2.40;1.60;;;;;;;12.41;46.23;95198.91;10353523;28;98650;-68
2022/05/30 00:47:40;;;;;;;2.78;1.50;;;;;;;12.44;46.25;95208.19;10352041;28;98023;-69
2022/05/30 00:52:45;;;;;;;3.45;1.55;;;;;;;12.43;46.54;95196.13;10357513;28;98645;-68
2022/05/30 00:57:49;;;;;;;3.33;1.70;;;;;;;12.37;46.35;95202.09;10358147;28;98474;-68
2022/05/30 01:08:11;;;;;;;3.42;1.55;;;;;;;12.39;46.14;95206.16;10362777;28;97654;-69
2022/05/30 01:13:14;;;;;;;3.63;1.50;;;;;;;12.43;45.94;95199.53;10367001;28;98855;-68
2022/05/30 01:18:22;;;;;;;3.20;1.50;;;;;;;12.43;45.66;95196.13;10366107;28;98844;-69
2022/05/30 01:23:41;;;;;;;3.72;1.65;;;;;;;12.47;45.62;95197.34;10364171;28;99027;-69
2022/05/30 01:28:50;;;;;;;4.35;1.60;;;;;;;12.45;46.54;95205.41;10362401;28;98206;-70
2022/05/30 01:33:53;;;;;;;2.80;1.58;;;;;;;12.46;46.01;95201.81;10364539;28;98486;-70
2022/05/30 01:38:56;;;;;;;3.45;1.48;;;;;;;12.46;46.19;95198.38;10354728;28;98646;-70
2022/05/30 01:44:00;;;;;;;3.90;1.55;;;;;;;12.35;45.90;95191.78;10363461;28;99024;-70
2022/05/30 01:49:03;;;;;;;3.13;1.63;;;;;;;12.29;46.13;95193.34;10358973;28;98015;-69
2022/05/30 01:54:06;;;;;;;2.83;1.50;;;;;;;12.21;46.30;95192.63;10360802;28;99148;-69
2022/05/30 01:59:10;;;;;;;2.83;1.83;;;;;;;12.04;47.21;95197.25;10352927;28;98319;-70
2022/05/30 02:04:14;;;;;;;3.57;1.83;;;;;;;11.87;47.67;95196.66;10363576;28;98571;-69
2022/05/30 02:09:16;;;;;;;2.63;1.30;;;;;;;11.70;48.66;95190.78;10362143;28;98431;-69
2022/05/30 02:14:21;;;;;;;1.75;1.33;;;;;;;11.61;49.12;95192.69;10362472;28;98579;-70
2022/05/30 02:19:23;;;;;;;2.87;1.60;;;;;;;11.45;48.96;95187.59;10356778;28;99237;-69
2022/05/30 02:24:26;;;;;;;4.30;1.50;;;;;;;11.24;49.61;95189.09;10360741;28;99446;-68
2022/05/30 02:29:30;;;;;;;2.58;1.38;;;;;;;11.08;50.33;95194.47;10353880;28;97165;-68
2022/05/30 02:39:54;;;;;;;2.38;1.40;;;;;;;10.71;50.25;95206.50;10354732;28;97814;-69
2022/05/30 02:44:58;;;;;;;3.13;1.40;;;;;;;10.60;50.90;95200.69;10358109;28;100208;-69
2022/05/30 02:50:00;;;;;;;3.03;1.43;;;;;;;10.51;51.13;95203.50;10353987;28;98519;-69
2022/05/30 02:55:04;;;;;;;3.20;1.40;;;;;;;10.26;51.71;95203.66;10361074;28;99310;-69
2022/05/30 03:00:10;;;;;;;2.38;1.50;;;;;;;10.19;51.78;95193.09;10358723;28;98957;-68
2022/05/30 03:05:13;;;;;;;2.35;1.25;;;;;;;10.02;51.89;95202.78;10357035;28;97559;-69
2022/05/30 03:10:16;;;;;;;3.28;1.42;;;;;;;9.88;52.49;95202.69;10359976;28;98648;-69
2022/05/30 03:15:20;;;;;;;2.38;1.25;;;;;;;9.69;53.39;95206.50;10356078;28;97224;-69
2022/05/30 03:20:29;;;;;;;4.15;1.90;;;;;;;9.47;52.71;95204.44;10354097;28;98880;-68
2022/05/30 03:25:32;;;;;;;2.80;1.67;;;;;;;9.27;53.67;95205.75;10358327;28;98362;-68
2022/05/30 03:30:37;;;;;;;2.72;1.52;;;;;;;9.11;53.82;95219.59;10353265;28;98677;-68
2022/05/30 03:35:40;;;;;;;2.95;1.60;;;;;;;8.88;54.58;95219.41;10353015;28;98466;-68
2022/05/30 03:40:43;;;;;;;2.83;1.33;;;;;;;8.69;54.81;95229.19;10354468;28;98718;-68
2022/05/30 03:45:47;;;;;;;3.15;1.40;;;;;;;8.50;55.22;95232.91;10355627;28;97218;-68
2022/05/30 03:50:50;;;;;;;2.55;1.70;;;;;;;8.39;55.99;95230.56;10348293;28;98787;-68
2022/05/30 03:55:53;;;;;;;2.78;1.60;;;;;;;8.22;56.15;95234.94;10361992;28;98096;-69
2022/05/30 04:00:57;;;;;;;3.65;1.40;;;;;;;8.11;56.94;95237.81;10357105;28;98503;-69
2022/05/30 04:06:00;;;;;;;3.25;1.33;;;;;;;8.13;56.50;95236.69;10356374;28;98851;-69
2022/05/30 04:11:03;;;;;;;2.63;1.50;;;;;;;8.07;56.79;95242.53;10356730;28;98910;-69
2022/05/30 04:16:12;;;;;;;2.92;1.90;;;;;;;7.87;57.25;95247.13;10360563;28;98821;-69
2022/05/30 04:21:15;;;;;;;2.03;1.40;;;;;;;7.89;56.99;95249.59;10353040;28;99040;-69
2022/05/30 04:26:18;;;;;;;3.03;1.35;;;;;;;7.96;56.92;95255.78;10361500;28;96880;-69
2022/05/30 04:31:22;;;;;;;2.58;1.42;;;;;;;7.94;57.42;95257.72;10354117;28;97168;-68
2022/05/30 04:36:25;;;;;;;3.75;1.70;;;;;;;8.18;56.61;95264.03;10353059;28;96869;-69
2022/05/30 04:41:28;;;;;;;2.80;1.30;;;;;;;8.29;56.76;95267.16;10351642;28;98903;-69
2022/05/30 04:46:32;;;;;;;1.85;1.25;;;;;;;8.39;57.01;95271.41;10353017;28;98382;-68
2022/05/30 04:51:36;;;;;;;2.37;1.20;;;;;;;8.49;56.88;95277.31;10349465;28;98253;-68
2022/05/30 04:56:38;;;;;;;2.58;1.23;;;;;;;8.60;56.84;95273.59;10359915;28;96980;-69
2022/05/30 05:01:43;;;;;;;2.63;1.30;;;;;;;8.69;57.12;95281.25;10355551;28;98616;-68
2022/05/30 05:06:46;;;;;;;3.83;1.23;;;;;;;8.87;56.97;95282.91;10359804;28;98637;-69
2022/05/30 05:11:48;;;;;;;3.58;1.92;;;;;;;8.93;56.71;95284.88;10359528;28;98982;-70
2022/05/30 05:16:52;;;;;;;2.08;1.33;;;;;;;9.07;56.63;95292.06;10360309;28;97736;-69
2022/05/30 05:21:55;;;;;;;2.17;1.25;;;;;;;9.22;56.58;95294.03;10361485;28;97889;-68
2022/05/30 05:26:58;;;;;;;2.22;1.30;;;;;;;9.34;57.06;95308.34;10366287;28;98629;-69
2022/05/30 05:32:04;;;;;;;3.47;1.55;;;;;;;9.60;56.94;95307.41;10353264;28;100668;-69
2022/05/30 05:37:06;;;;;;;2.20;1.30;;;;;;;9.99;55.56;95301.47;10353992;28;97708;-68
2022/05/30 05:42:10;;;;;;;3.20;1.30;;;;;;;10.46;55.65;95311.09;10358901;28;98847;-69
2022/05/30 05:47:14;;;;;;;2.05;1.15;;;;;;;10.93;55.15;95315.44;10352503;28;98293;-68
2022/05/30 05:52:18;;;;;;;4.33;1.30;;;;;;;11.26;54.39;95320.44;10358372;28;99356;-68
2022/05/30 05:57:20;;;;;;;5.45;1.30;;;;;;;11.50;54.33;95331.72;10364700;28;97733;-69
2022/05/30 06:02:27;;;;;;;4.20;1.40;;;;;;;11.67;54.04;95338.44;10355837;28;98994;-69
2022/05/30 06:07:30;;;;;;;3.67;1.38;;;;;;;11.91;55.02;95334.81;10362392;28;96902;-69
2022/05/30 06:12:36;;;;;;;2.80;1.25;;;;;;;12.04;54.54;95336.81;10363604;28;97135;-70
2022/05/30 06:17:42;;;;;;;2.45;1.60;;;;;;;12.25;53.99;95332.69;10362926;28;98924;-70
2022/05/30 06:22:45;;;;;;;3.58;1.27;;;;;;;12.45;53.84;95335.56;10363260;28;98643;-68
2022/05/30 06:27:48;;;;;;;3.03;1.15;;;;;;;12.54;53.55;95328.41;10366658;28;96865;-69
2022/05/30 06:32:52;;;;;;;2.63;1.25;;;;;;;12.56;53.73;95327.25;10357353;28;100099;-70
2022/05/30 06:37:55;;;;;;;2.40;1.20;;;;;;;12.49;53.75;95337.66;10359805;28;96906;-70
2022/05/30 06:42:58;;;;;;;2.05;1.20;;;;;;;12.51;53.71;95342.72;10352663;28;97807;-70
2022/05/30 06:48:02;;;;;;;3.88;1.30;;;;;;;12.54;53.38;95339.72;10359878;28;98091;-69
2022/05/30 06:53:06;;;;;;;3.03;1.40;;;;;;;12.69;53.81;95355.44;10360673;28;96896;-70
2022/05/30 06:58:15;;;;;;;2.83;1.42;;;;;;;12.90;53.05;95343.38;10354333;28;97166;-69
2022/05/30 07:03:19;;;;;;;2.97;1.30;;;;;;;12.90;53.18;95353.88;10360451;28;96820;-68
2022/05/30 07:08:23;;;;;;;3.33;1.50;;;;;;;12.92;52.08;95346.66;10358130;28;98768;-69
2022/05/30 07:13:26;;;;;;;2.88;1.42;;;;;;;12.94;52.35;95345.47;10357343;28;96773;-68
2022/05/30 07:18:30;;;;;;;3.15;1.23;;;;;;;13.06;52.38;95345.81;10353855;28;96996;-69
2022/05/30 07:23:35;;;;;;;2.17;1.30;;;;;;;13.08;52.37;95351.66;10364695;28;98919;-69
2022/05/30 07:28:38;;;;;;;2.63;1.27;;;;;;;13.19;52.36;95353.00;10356181;28;97151;-69
2022/05/30 07:33:44;;;;;;;2.03;1.20;;;;;;;13.33;52.22;95353.97;10360807;28;99121;-69
2022/05/30 07:38:47;;;;;;;3.13;1.42;;;;;;;13.47;51.56;95350.47;10356744;28;98410;-69
2022/05/30 07:43:51;;;;;;;2.75;1.25;;;;;;;13.61;51.78;95346.16;10353273;28;97185;-69
2022/05/30 07:48:55;;;;;;;2.60;1.25;;;;;;;13.67;50.72;95355.06;10368475;28;97003;-68
2022/05/30 07:53:58;;;;;;;1.57;1.13;;;;;;;13.75;50.58;95358.38;10359841;28;98696;-68
2022/05/30 07:59:01;;;;;;;3.22;1.30;;;;;;;13.78;50.79;95365.88;10369460;28;99647;-69
2022/05/30 08:04:12;;;;;;;1.85;1.25;;;;;;;13.90;50.06;95354.88;10361998;28;98741;-68
2022/05/30 08:09:15;;;;;;;3.40;1.48;;;;;;;14.00;50.17;95356.16;10355844;28;97134;-68
2022/05/30 08:14:19;;;;;;;4.03;1.55;;;;;;;14.25;49.21;95360.19;10353982;28;98855;-68
2022/05/30 08:19:23;;;;;;;2.28;1.42;;;;;;;14.43;49.18;95354.44;10361935;28;99277;-68
2022/05/30 08:24:51;;;;;;;2.80;1.20;;;;;;;14.52;49.07;95363.78;10361688;28;98878;-67
2022/05/30 08:29:53;;;;;;;3.53;1.63;;;;;;;14.56;49.01;95368.47;10348034;28;97138;-68
2022/05/30 08:34:59;;;;;;;4.25;1.40;;;;;;;14.56;48.02;95370.31;10372083;28;96979;-69
2022/05/30 08:45:28;;;;;;;2.42;1.10;;;;;;;14.40;48.55;95370.59;10361233;28;97029;-68
2022/05/30 08:50:41;;;;;;;2.78;1.40;;;;;;;14.52;48.74;95374.31;10366282;28;97106;-69
2022/05/30 08:55:48;;;;;;;2.60;1.30;;;;;;;14.52;48.13;95374.31;10371650;28;97114;-68
2022/05/30 09:00:54;;;;;;;4.20;1.40;;;;;;;14.60;48.17;95379.41;10367744;28;96976;-68
2022/05/30 09:06:04;;;;;;;1.15;0.98;;;;;;;14.88;47.25;95378.53;10358397;28;98788;-68
2022/05/30 09:11:13;;;;;;;2.92;1.40;;;;;;;15.10;46.88;95366.91;10363068;28;98990;-68
2022/05/30 09:16:30;;;;;;;4.13;1.45;;;;;;;15.30;46.32;95372.22;10363800;28;96954;-68
2022/05/30 09:21:35;;;;;;;2.20;1.52;;;;;;;15.35;47.02;95361.09;10368308;28;100268;-68
2022/05/30 09:26:41;;;;;;;1.88;1.30;;;;;;;15.38;45.94;95373.84;10367145;28;96751;-69
2022/05/30 09:31:47;;;;;;;;;;;;;;;15.40;46.94;95369.19;10375974;28;96777;-68
2022/05/30 09:36:52;;;;;;;3.38;1.20;;;;;;;15.63;46.34;95368.06;10357738;28;96988;-68
2022/05/30 09:41:57;;;;;;;2.53;1.30;;;;;;;15.75;46.48;95369.09;10359773;28;97077;-68
2022/05/30 09:47:03;;;;;;;3.67;1.40;;;;;;;16.05;45.68;95368.69;10363247;28;96763;-68
2022/05/30 09:52:37;;;;;;;3.45;1.50;;;;;;;16.19;45.41;95367.69;10362278;28;96763;-69
2022/05/30 09:57:44;;;;;;;4.15;1.60;;;;;;;16.37;44.72;95367.03;10374834;28;98083;-69
2022/05/30 10:03:00;;;;;;;3.95;1.65;;;;;;;16.60;44.36;95361.31;10351751;28;97642;-68
2022/05/30 10:08:07;;;;;;;5.97;1.50;;;;;;;16.81;44.35;95362.09;10342778;28;97116;-68
2022/05/30 10:13:11;;;;;;;3.83;1.58;;;;;;;17.09;43.18;95363.63;10345581;28;98765;-68
2022/05/30 10:18:24;;;;;;;2.35;1.65;;;;;;;17.24;43.25;95355.44;10344322;28;96946;-68
2022/05/30 10:29:15;;;;;;;4.13;1.52;;;;;;;17.15;42.46;95353.03;10343407;28;96790;-68
2022/05/30 10:34:49;;;;;;;3.85;1.42;;;;;;;17.40;42.50;95351.50;10357998;28;98591;-68
2022/05/30 10:40:04;;;;;;;2.30;1.50;;;;;;;17.90;41.75;95348.94;10357768;28;96938;-68
2022/05/30 10:45:15;;;;;;;3.13;1.25;;;;;;;18.26;40.97;95344.78;10376812;28;97003;-68
2022/05/30 10:50:24;;;;;;;3.22;1.40;;;;;;;18.59;40.72;95349.75;10374905;28;98543;-68
2022/05/30 10:55:34;;;;;;;2.35;1.30;;;;;;;18.84;40.18;95347.00;10376612;28;96745;-68
2022/05/30 11:00:45;;;;;;;2.53;1.27;;;;;;;19.15;38.61;95350.53;10375086;28;96912;-68
2022/05/30 11:05:54;;;;;;;2.80;1.30;;;;;;;19.27;38.18;95357.75;10376015;28;99791;-68
2022/05/30 11:11:04;;;;;;;1.65;1.15;;;;;;;19.41;37.58;95343.28;10375818;28;96927;-68
2022/05/30 11:16:24;;;;;;;3.05;1.20;;;;;;;19.35;36.76;95352.13;10373406;28;96944;-68
2022/05/30 11:21:34;;;;;;;1.85;1.17;;;;;;;19.30;37.51;95363.41;10374513;28;101377;-68
2022/05/30 11:27:00;;;;;;;2.38;1.08;;;;;;;19.75;36.81;95348.94;10374926;28;97859;-69
2022/05/30 11:32:11;;;;;;;2.65;0.95;;;;;;;20.08;36.08;95348.44;10360107;28;97168;-68
2022/05/30 11:37:37;;;;;;;4.18;1.30;;;;;;;20.36;35.32;95355.69;10373084;28;97197;-68
2022/05/30 11:42:53;;;;;;;2.08;1.17;;;;;;;20.67;35.30;95347.59;10374958;28;97042;-68
2022/05/30 11:48:06;;;;;;;3.75;1.20;;;;;;;20.98;34.75;95335.81;10374344;28;96952;-68
2022/05/30 11:53:47;;;;;;;2.38;1.08;;;;;;;21.33;34.10;95345.50;10374160;28;96866;-68
2022/05/30 11:59:27;;;;;;;2.92;0.85;;;;;;;21.74;32.58;95348.91;10304511;28;97111;-69
2022/05/30 12:04:51;;;;;;;2.90;0.98;;;;;;;21.67;32.57;95349.06;10306370;28;96918;-68
2022/05/30 12:10:07;;;;;;;2.17;0.90;;;;;;;21.36;32.30;95338.91;10322034;28;97135;-68
2022/05/30 12:15:49;;;;;;;3.38;1.00;;;;;;;21.30;32.60;95336.16;10325328;28;97117;-68
2022/05/30 12:26:57;;;;;;;1.98;0.80;;;;;;;22.41;30.38;95329.50;10329385;28;97083;-68
2022/05/30 12:32:16;;;;;;;2.33;0.80;;;;;;;22.29;30.17;95327.97;10316991;28;96860;-69
2022/05/30 12:37:45;;;;;;;1.90;1.10;;;;;;;22.44;29.58;95322.88;10379156;28;96852;-69
2022/05/30 12:43:02;;;;;;;1.65;0.70;;;;;;;22.49;29.45;95314.19;10380127;28;96729;-68
2022/05/30 12:48:20;;;;;;;2.17;0.80;;;;;;;22.54;29.22;95309.72;10377996;28;97192;-69
2022/05/30 12:53:25;;;;;;;2.08;1.02;;;;;;;22.64;29.63;95314.38;10378510;28;96812;-68
2022/05/30 12:59:06;;;;;;;1.50;0.90;;;;;;;22.73;29.16;95301.44;10382249;28;97873;-69
2022/05/30 13:04:25;;;;;;;3.10;1.02;;;;;;;22.65;29.06;95305.38;10377328;28;96942;-69
2022/05/30 13:09:36;;;;;;;3.35;1.02;;;;;;;22.16;29.76;95308.66;10379829;28;96972;-69
2022/05/30 13:15:03;;;;;;;2.08;0.90;;;;;;;22.56;29.12;95312.13;10379898;28;98649;-69
2022/05/30 13:20:11;;;;;;;1.45;0.90;;;;;;;22.25;28.84;95296.53;10365371;28;96776;-69
2022/05/30 13:25:19;;;;;;;1.63;0.75;;;;;;;22.08;29.00;95297.63;10381360;28;97058;-68
2022/05/30 13:30:25;;;;;;;2.03;0.85;;;;;;;22.37;28.54;95301.75;10375272;28;97949;-68
2022/05/30 13:35:32;;;;;;;2.28;0.90;;;;;;;23.00;27.80;95297.00;10379295;28;96833;-69
2022/05/30 13:40:36;;;;;;;2.63;0.90;;;;;;;23.46;27.53;95278.03;10380353;28;96918;-68
2022/05/30 13:45:41;;;;;;;3.00;0.97;;;;;;;23.80;27.43;95280.47;10378661;28;96870;-69
2022/05/30 13:50:55;;;;;;;2.50;0.70;;;;;;;23.99;26.04;95280.88;10378312;28;96885;-69
2022/05/30 13:56:01;;;;;;;2.10;0.82;;;;;;;24.00;26.27;95282.50;10378478;28;96782;-68
2022/05/30 14:01:06;;;;;;;1.42;1.00;;;;;;;24.65;25.95;95279.69;10379748;28;98612;-68
2022/05/30 14:06:22;;;;;;;2.97;0.80;;;;;;;25.84;25.17;95281.63;10375779;28;98095;-68
2022/05/30 14:11:29;;;;;;;1.65;0.63;;;;;;;27.75;23.05;95279.13;10376258;28;96827;-69
2022/05/30 14:16:36;;;;;;;2.80;0.93;;;;;;;28.77;22.41;95282.72;10379892;28;96928;-69
2022/05/30 14:21:54;;;;;;;2.08;0.90;;;;;;;30.54;21.24;95283.41;10377313;28;96865;-69
2022/05/30 14:26:57;;;;;;;2.45;0.80;;;;;;;32.00;20.43;95278.97;10376513;28;97881;-69
2022/05/30 14:32:07;;;;;;;2.67;0.82;;;;;;;32.51;19.57;95277.69;10376158;28;96793;-69
2022/05/30 14:37:26;;;;;;;2.72;0.80;;;;;;;34.33;18.04;95280.97;10378698;28;96820;-69
2022/05/30 14:42:33;;;;;;;1.67;0.85;;;;;;;34.82;18.01;95279.84;10376242;28;99633;-69
2022/05/30 14:47:41;;;;;;;1.60;0.70;;;;;;;35.30;17.56;95271.31;10373781;28;96985;-70
2022/05/30 14:52:52;;;;;;;2.42;0.80;;;;;;;35.86;16.27;95281.09;10377920;28;96787;-70
2022/05/30 14:57:58;;;;;;;2.83;0.73;;;;;;;35.86;16.75;95272.94;10378162;28;97337;-70
2022/05/30 15:08:25;;;;;;;3.53;1.10;;;;;;;35.43;17.04;95284.94;10376186;28;98006;-70
2022/05/30 15:13:28;;;;;;;1.85;0.90;;;;;;;34.33;17.47;95288.28;10377866;28;96787;-70
2022/05/30 15:18:31;;;;;;;0.98;0.60;;;;;;;34.83;17.02;95286.84;10375240;28;97005;-70
2022/05/30 15:23:41;;;;;;;1.23;0.65;;;;;;;35.65;16.87;95279.19;10373432;28;96905;-70
2022/05/30 15:28:44;;;;;;;1.75;0.70;;;;;;;34.77;16.38;95280.84;10374912;28;96777;-70
2022/05/30 15:33:48;;;;;;;1.35;0.80;;;;;;;32.17;17.98;95275.59;10374816;28;96863;-70
2022/05/30 15:38:52;;;;;;;1.88;1.00;;;;;;;31.74;18.07;95276.06;10374738;28;96896;-70
2022/05/30 15:43:55;;;;;;;1.92;1.10;;;;;;;31.18;18.57;95270.78;10375606;28;97145;-71
2022/05/30 15:48:58;;;;;;;1.88;0.80;;;;;;;31.98;17.72;95270.38;10374852;28;96823;-70
2022/05/30 15:59:42;;;;;;;1.05;0.70;;;;;;;32.30;17.11;95263.91;10324938;28;98160;-70
2022/05/30 16:04:46;;;;;;;2.00;0.80;;;;;;;29.98;19.29;95266.31;10323373;28;96914;-70
2022/05/30 16:09:59;;;;;;;0.90;0.60;;;;;;;31.60;18.28;95258.00;10330615;28;97062;-73
2022/05/30 16:15:06;;;;;;;2.38;0.70;;;;;;;33.02;17.31;95256.53;10317326;28;97547;-71
2022/05/30 16:20:12;;;;;;;1.48;0.63;;;;;;;34.19;16.59;95256.78;10313683;28;99600;-71
2022/05/30 16:25:18;;;;;;;1.58;0.75;;;;;;;34.55;16.12;95255.50;10306910;28;97367;-71
2022/05/30 16:30:22;;;;;;;2.53;0.80;;;;;;;35.52;15.88;95250.38;10351317;28;97995;-71
2022/05/30 16:35:25;;;;;;;1.30;0.60;;;;;;;36.13;15.09;95240.88;10371784;28;97583;-70
2022/05/30 16:40:31;;;;;;;2.58;0.80;;;;;;;36.67;15.46;95239.97;10370877;28;96705;-72
2022/05/30 16:45:34;;;;;;;2.88;0.80;;;;;;;36.58;15.59;95251.75;10370504;28;97152;-73
2022/05/30 16:50:41;;;;;;;3.15;0.93;;;;;;;36.80;15.78;95255.97;10371187;28;97170;-71
2022/05/30 16:55:45;;;;;;;3.33;1.05;;;;;;;35.98;16.29;95251.28;10369615;28;97607;-73
2022/05/30 17:00:48;;;;;;;2.13;0.90;;;;;;;35.46;15.86;95251.69;10376588;28;97221;-73
2022/05/30 17:05:54;;;;;;;3.10;0.80;;;;;;;35.48;16.00;95254.88;10373112;28;99543;-72
2022/05/30 17:10:59;;;;;;;1.45;0.70;;;;;;;34.61;16.83;95256.16;10377089;28;96919;-72
2022/05/30 17:16:08;;;;;;;2.45;0.85;;;;;;;34.51;17.20;95257.28;10377811;28;97853;-72
2022/05/30 17:21:11;;;;;;;1.20;0.65;;;;;;;33.89;17.39;95271.28;10371599;28;98172;-72
2022/05/30 17:29:05;;;;;;;2.03;0.75;;;;;;;32.77;17.38;95270.78;10377777;28;96997;-71
2022/05/30 17:31:40;;;;;;;1.63;0.68;;;;;;;31.89;17.95;95267.59;10377377;28;96953;-76
2022/05/30 17:36:43;;;;;;;1.63;0.88;;;;;;;31.52;18.87;95274.13;10364840;28;100968;-70
2022/05/30 17:41:48;;;;;;;2.38;0.85;;;;;;;30.38;19.64;95286.38;10373087;28;97622;-69
2022/05/30 17:46:57;;;;;;;2.22;0.88;;;;;;;30.07;19.61;95296.84;10375539;28;96984;-70
2022/05/30 17:52:05;;;;;;;2.65;0.80;;;;;;;30.27;20.00;95301.13;10377072;28;99277;-70
2022/05/30 17:57:11;;;;;;;5.57;3.63;;;;;;;30.13;20.86;95303.75;10357683;28;99091;-69
2022/05/30 18:02:15;;;;;;;3.00;1.10;;;;;;;30.06;20.90;95317.59;10362958;28;98993;-71
2022/05/30 18:07:31;;;;;;;1.80;0.80;;;;;;;27.95;22.36;95318.41;10361288;28;97973;-69
2022/05/30 18:12:41;;;;;;;3.20;1.10;;;;;;;25.95;24.05;95326.03;10355594;28;102606;-68
2022/05/30 18:19:36;;;;;;;2.10;1.27;;;;;;;24.71;25.50;95334.72;10357069;28;96937;-71
2022/05/30 18:23:41;;;;;;;11.32;10.05;;;;;;;23.75;26.77;95337.22;10368311;28;100242;-68
2022/05/30 18:28:46;;;;;;;3.42;1.27;;;;;;;23.19;27.53;95339.28;10366921;28;97690;-69
2022/05/30 18:33:51;;;;;;;2.40;1.10;;;;;;;22.82;27.86;95353.22;10365428;28;97601;-68
2022/05/30 18:39:05;;;;;;;2.58;1.17;;;;;;;22.47;28.40;95348.22;10360463;28;102047;-68
2022/05/30 18:44:13;;;;;;;2.33;1.20;;;;;;;21.93;29.11;95356.69;10355513;28;97412;-68
2022/05/30 18:49:21;;;;;;;2.70;1.58;;;;;;;21.48;29.22;95356.44;10348766;28;97409;-67
2022/05/30 18:54:25;;;;;;;2.58;0.98;;;;;;;21.24;29.79;95365.50;10360219;28;97735;-70
2022/05/30 18:59:34;;;;;;;1.33;1.10;;;;;;;20.95;30.44;95376.09;10360083;28;98605;-69
2022/05/30 19:04:38;;;;;;;3.63;1.20;;;;;;;20.64;30.40;95387.88;10361564;28;98194;-69
2022/05/30 19:09:41;;;;;;;2.40;1.00;;;;;;;20.26;30.89;95392.59;10360189;28;99438;-69
2022/05/30 19:14:49;;;;;;;2.80;0.90;;;;;;;19.98;30.83;95399.34;10356081;28;98850;-69
2022/05/30 19:20:06;;;;;;;6.32;1.65;;;;;;;19.69;31.67;95408.91;10358869;28;98533;-69
2022/05/30 19:25:12;;;;;;;2.72;1.02;;;;;;;19.43;31.98;95420.69;10356624;28;99218;-68
2022/05/30 19:30:22;;;;;;;3.03;1.38;;;;;;;19.12;32.52;95427.75;10354711;28;100175;-68
2022/05/30 19:35:32;;;;;;;3.22;1.35;;;;;;;18.72;33.69;95436.09;10360808;28;97859;-69
2022/05/30 19:40:40;;;;;;;1.58;0.90;;;;;;;18.26;34.04;95439.97;10367388;28;100309;-69
2022/05/30 19:45:44;;;;;;;4.60;1.30;;;;;;;18.11;34.05;95450.84;10366662;28;99216;-68
2022/05/30 19:50:47;;;;;;;2.35;1.00;;;;;;;17.78;34.29;95446.53;10368036;28;97068;-69
2022/05/30 19:55:50;;;;;;;3.50;1.13;;;;;;;17.54;34.37;95459.47;10371386;28;100592;-69
2022/05/30 20:00:55;;;;;;;4.05;1.10;;;;;;;17.19;35.41;95466.91;10371887;28;98249;-69
2022/05/30 20:05:58;;;;;;;3.40;1.63;;;;;;;16.89;35.83;95467.41;10360584;28;98323;-68
2022/05/30 20:11:01;;;;;;;4.20;1.35;;;;;;;16.78;35.89;95481.22;10359186;28;98659;-68
2022/05/30 20:16:06;;;;;;;3.85;1.00;;;;;;;16.74;35.92;95493.16;10353462;28;98025;-69
2022/05/30 20:21:09;;;;;;;2.88;1.48;;;;;;;16.88;36.27;95497.41;10345689;28;97165;-69
2022/05/30 20:26:12;;;;;;;5.68;1.50;;;;;;;16.97;35.54;95500.66;10358152;28;100227;-68
2022/05/30 20:31:16;;;;;;;3.67;1.38;;;;;;;17.01;35.64;95509.78;10360335;28;98441;-70
2022/05/30 20:36:24;;;;;;;2.55;1.15;;;;;;;17.00;35.54;95514.28;10364997;28;98754;-68
2022/05/30 20:46:49;;;;;;;3.50;1.20;;;;;;;16.75;35.34;95529.09;10369049;28;97877;-70
2022/05/30 20:51:56;;;;;;;3.65;1.08;;;;;;;16.36;36.24;95535.94;10366662;28;99842;-69
2022/05/30 20:56:59;;;;;;;5.35;2.40;;;;;;;15.90;37.32;95531.41;10360649;28;97356;-70
2022/05/30 21:02:03;;;;;;;1.48;0.95;;;;;;;15.68;37.97;95526.25;10364220;28;98744;-71
2022/05/30 21:07:06;;;;;;;12.15;8.45;;;;;;;15.61;37.43;95520.16;10365049;28;97534;-71
2022/05/30 21:12:10;;;;;;;5.80;1.33;;;;;;;15.39;38.96;95533.41;10366076;28;101131;-68
2022/05/30 21:17:19;;;;;;;1.65;1.15;;;;;;;15.22;38.74;95529.47;10364241;28;99423;-72
2022/05/30 21:22:24;;;;;;;6.05;2.63;;;;;;;15.16;38.57;95532.84;10361298;28;97674;-72
2022/05/30 21:27:27;;;;;;;;;;;;;;;15.01;38.00;95536.41;10368000;28;98635;-72
2022/05/30 21:32:38;;;;;;;3.78;1.10;;;;;;;14.70;38.60;95524.47;10365523;28;98574;-71
2022/05/30 21:37:43;;;;;;;3.22;1.00;;;;;;;14.67;38.80;95519.59;10363632;28;97725;-72
2022/05/30 21:42:46;;;;;;;1.38;0.70;;;;;;;14.50;39.06;95518.22;10371433;28;98371;-72
2022/05/30 21:47:52;;;;;;;4.55;1.10;;;;;;;14.22;40.48;95526.84;10377763;28;96881;-72
2022/05/30 21:52:55;;;;;;;2.05;1.13;;;;;;;13.89;40.38;95524.72;10365612;28;103028;-72
2022/05/30 21:57:58;;;;;;;6.35;1.30;;;;;;;13.89;40.41;95519.47;10356189;28;97367;-72
2022/05/30 22:03:06;;;;;;;3.28;1.17;;;;;;;13.73;40.62;95524.94;10374954;28;98126;-72
2022/05/30 22:08:11;;;;;;;2.65;1.00;;;;;;;13.52;40.92;95516.03;10373641;28;96845;-72
2022/05/30 22:13:15;;;;;;;;;;;;;;;13.40;40.17;95520.13;10376092;28;96888;-72
2022/05/30 22:18:19;;;;;;;1.35;0.80;;;;;;;13.30;41.31;95512.53;10375344;28;100170;-72
2022/05/30 22:23:24;;;;;;;1.40;0.90;;;;;;;13.26;40.87;95513.88;10376827;28;97318;-72
2022/05/30 22:28:27;;;;;;;;;;;;;;;13.18;40.87;95522.66;10370202;28;96978;-72
2022/05/30 22:33:31;;;;;;;1.30;0.90;;;;;;;13.18;40.86;95522.66;10357671;28;97757;-73
2022/05/30 22:38:34;;;;;;;4.67;1.10;;;;;;;13.15;41.11;95523.03;10357381;28;98314;-72
2022/05/30 22:43:37;;;;;;;2.53;0.90;;;;;;;13.15;40.75;95524.81;10363255;28;96908;-72
2022/05/30 22:48:42;;;;;;;2.65;1.00;;;;;;;13.00;41.96;95517.78;10354248;28;97151;-70
2022/05/30 22:53:47;;;;;;;1.80;0.97;;;;;;;12.97;42.53;95523.38;10355307;28;97970;-70
2022/05/30 22:58:51;;;;;;;2.00;1.23;;;;;;;12.84;42.95;95523.97;10364630;28;97853;-73
2022/05/30 23:03:55;;;;;;;1.30;0.90;;;;;;;12.75;42.65;95530.31;10360584;28;98452;-72
2022/05/30 23:08:58;;;;;;;3.17;1.33;;;;;;;12.60;44.46;95521.59;10361511;28;99299;-72
2022/05/30 23:14:05;;;;;;;4.88;1.42;;;;;;;12.28;44.99;95529.56;10363532;28;99195;-72
2022/05/30 23:19:12;;;;;;;2.38;1.20;;;;;;;11.98;46.62;95528.59;10357362;28;98506;-71
2022/05/30 23:24:15;;;;;;;3.55;1.13;;;;;;;11.71;47.09;95525.50;10361967;28;96895;-72
2022/05/30 23:29:19;;;;;;;2.58;1.30;;;;;;;11.65;47.27;95528.81;10364460;28;98673;-72
2022/05/30 23:34:23;;;;;;;3.00;1.25;;;;;;;11.67;47.64;95532.06;10360478;28;98470;-72
2022/05/30 23:39:26;;;;;;;2.27;1.13;;;;;;;11.78;46.90;95527.41;10360073;28;97627;-72
2022/05/30 23:44:35;;;;;;;2.80;1.27;;;;;;;11.73;47.23;95520.91;10360835;28;98403;-72
2022/05/30 23:49:47;;;;;;;1.40;0.80;;;;;;;11.69;46.64;95511.78;10363620;28;99046;-72
2022/05/30 23:54:50;;;;;;;1.05;0.90;;;;;;;11.69;46.60;95513.56;10362641;28;99216;-72
2022/05/30 23:59:53;;;;;;;1.65;0.80;;;;;;;11.60;47.37;95510.19;10360273;28;99967;-72
